sensor_id;sensor_type;location;lat;lon;timestamp;temperature;humidity
13433;DHT22;6789;47.678;9.158;2023-11-19T00:37:31;8.70;99.90
13433;DHT22;6789;47.678;9.158;2023-11-19T01:05:09;8.90;99.90
13433;DHT22;6789;47.678;9.158;2023-11-19T01:21:04;9.10;99.90
13433;DHT22;6789;47.678;9.158;2023-11-19T02:42:18;9.10;99.90
13433;DHT22;6789;47.678;9.158;2023-11-19T02:53:03;8.90;99.90
13433;DHT22;6789;47.678;9.158;2023-11-19T02:58:10;8.80;99.90
13433;DHT22;6789;47.678;9.158;2023-11-19T03:03:27;9.00;99.90
13433;DHT22;6789;47.678;9.158;2023-11-19T03:14:19;8.90;99.90
13433;DHT22;6789;47.678;9.158;2023-11-19T03:19:11;9.00;99.90
13433;DHT22;6789;47.678;9.158;2023-11-19T03:24:03;9.10;99.90
13433;DHT22;6789;47.678;9.158;2023-11-19T03:28:55;9.10;99.90
13433;DHT22;6789;47.678;9.158;2023-11-19T03:33:48;9.10;99.90
13433;DHT22;6789;47.678;9.158;2023-11-19T03:38:40;9.10;99.90
13433;DHT22;6789;47.678;9.158;2023-11-19T03:43:34;9.30;99.90
13433;DHT22;6789;47.678;9.158;2023-11-19T03:48:40;9.40;99.90
13433;DHT22;6789;47.678;9.158;2023-11-19T03:53:31;9.60;99.90
13433;DHT22;6789;47.678;9.158;2023-11-19T03:58:23;9.80;99.90
13433;DHT22;6789;47.678;9.158;2023-11-19T04:03:15;9.80;99.90
13433;DHT22;6789;47.678;9.158;2023-11-19T04:08:07;9.80;99.90
13433;DHT22;6789;47.678;9.158;2023-11-19T04:12:58;9.70;99.90
13433;DHT22;6789;47.678;9.158;2023-11-19T04:17:50;9.70;99.90
13433;DHT22;6789;47.678;9.158;2023-11-19T04:22:42;9.70;99.90
13433;DHT22;6789;47.678;9.158;2023-11-19T04:27:34;9.70;99.90
13433;DHT22;6789;47.678;9.158;2023-11-19T04:32:26;9.70;99.90
13433;DHT22;6789;47.678;9.158;2023-11-19T04:37:18;9.70;99.90
13433;DHT22;6789;47.678;9.158;2023-11-19T04:42:10;9.80;99.90
13433;DHT22;6789;47.678;9.158;2023-11-19T04:47:02;9.80;99.90
13433;DHT22;6789;47.678;9.158;2023-11-19T04:51:54;9.80;99.90
13433;DHT22;6789;47.678;9.158;2023-11-19T04:56:46;9.90;99.90
13433;DHT22;6789;47.678;9.158;2023-11-19T05:01:38;9.80;99.90
13433;DHT22;6789;47.678;9.158;2023-11-19T05:06:31;9.80;99.90
13433;DHT22;6789;47.678;9.158;2023-11-19T05:11:23;9.90;99.90
13433;DHT22;6789;47.678;9.158;2023-11-19T05:16:15;9.90;99.90
13433;DHT22;6789;47.678;9.158;2023-11-19T05:21:07;10.00;99.90
13433;DHT22;6789;47.678;9.158;2023-11-19T05:25:59;10.00;99.90
13433;DHT22;6789;47.678;9.158;2023-11-19T05:30:58;10.00;99.90
13433;DHT22;6789;47.678;9.158;2023-11-19T05:35:50;10.00;99.90
13433;DHT22;6789;47.678;9.158;2023-11-19T05:40:41;10.00;99.90
13433;DHT22;6789;47.678;9.158;2023-11-19T05:45:33;10.00;99.90
13433;DHT22;6789;47.678;9.158;2023-11-19T05:50:25;10.00;99.90
13433;DHT22;6789;47.678;9.158;2023-11-19T05:55:17;10.20;99.90
13433;DHT22;6789;47.678;9.158;2023-11-19T06:00:09;10.30;99.90
13433;DHT22;6789;47.678;9.158;2023-11-19T06:05:02;10.40;99.90
13433;DHT22;6789;47.678;9.158;2023-11-19T06:09:54;10.50;99.90
13433;DHT22;6789;47.678;9.158;2023-11-19T06:14:45;10.50;99.90
13433;DHT22;6789;47.678;9.158;2023-11-19T06:19:37;10.60;99.90
13433;DHT22;6789;47.678;9.158;2023-11-19T06:24:30;10.70;99.90
13433;DHT22;6789;47.678;9.158;2023-11-19T06:29:21;10.70;99.90
13433;DHT22;6789;47.678;9.158;2023-11-19T06:34:13;10.80;99.90
13433;DHT22;6789;47.678;9.158;2023-11-19T06:39:05;10.70;99.90
13433;DHT22;6789;47.678;9.158;2023-11-19T06:43:57;10.70;99.90
13433;DHT22;6789;47.678;9.158;2023-11-19T06:48:49;10.70;99.90
13433;DHT22;6789;47.678;9.158;2023-11-19T06:53:42;10.80;99.90
13433;DHT22;6789;47.678;9.158;2023-11-19T06:58:38;11.00;99.90
13433;DHT22;6789;47.678;9.158;2023-11-19T07:03:31;11.00;99.90
13433;DHT22;6789;47.678;9.158;2023-11-19T07:08:23;11.20;99.90
13433;DHT22;6789;47.678;9.158;2023-11-19T07:13:14;11.20;99.90
13433;DHT22;6789;47.678;9.158;2023-11-19T07:18:07;11.20;99.90
13433;DHT22;6789;47.678;9.158;2023-11-19T07:22:59;11.20;99.90
13433;DHT22;6789;47.678;9.158;2023-11-19T07:27:51;11.30;99.90
13433;DHT22;6789;47.678;9.158;2023-11-19T07:32:44;11.40;99.90
13433;DHT22;6789;47.678;9.158;2023-11-19T07:37:35;11.40;99.90
13433;DHT22;6789;47.678;9.158;2023-11-19T07:42:27;11.50;99.90
13433;DHT22;6789;47.678;9.158;2023-11-19T07:47:20;11.60;99.90
13433;DHT22;6789;47.678;9.158;2023-11-19T07:52:14;11.70;99.90
13433;DHT22;6789;47.678;9.158;2023-11-19T07:57:09;11.80;99.90
13433;DHT22;6789;47.678;9.158;2023-11-19T08:02:01;11.80;99.90
13433;DHT22;6789;47.678;9.158;2023-11-19T08:06:53;11.90;99.90
13433;DHT22;6789;47.678;9.158;2023-11-19T08:11:45;11.90;99.90
13433;DHT22;6789;47.678;9.158;2023-11-19T08:16:39;11.90;99.90
13433;DHT22;6789;47.678;9.158;2023-11-19T08:21:31;12.00;99.90
13433;DHT22;6789;47.678;9.158;2023-11-19T08:26:23;12.00;99.90
13433;DHT22;6789;47.678;9.158;2023-11-19T08:31:14;12.00;99.90
13433;DHT22;6789;47.678;9.158;2023-11-19T08:36:07;12.10;99.90
13433;DHT22;6789;47.678;9.158;2023-11-19T08:40:59;12.20;99.90
13433;DHT22;6789;47.678;9.158;2023-11-19T08:45:52;12.20;99.90
13433;DHT22;6789;47.678;9.158;2023-11-19T08:50:43;12.30;99.90
13433;DHT22;6789;47.678;9.158;2023-11-19T08:55:35;12.40;99.90
13433;DHT22;6789;47.678;9.158;2023-11-19T09:00:28;12.40;99.90
13433;DHT22;6789;47.678;9.158;2023-11-19T09:05:21;12.50;99.90
13433;DHT22;6789;47.678;9.158;2023-11-19T09:10:13;12.50;99.90
13433;DHT22;6789;47.678;9.158;2023-11-19T09:15:05;12.40;99.90
13433;DHT22;6789;47.678;9.158;2023-11-19T09:19:57;12.50;99.90
13433;DHT22;6789;47.678;9.158;2023-11-19T09:24:49;12.40;99.90
13433;DHT22;6789;47.678;9.158;2023-11-19T09:29:41;12.50;99.90
13433;DHT22;6789;47.678;9.158;2023-11-19T09:34:34;12.50;99.90
13433;DHT22;6789;47.678;9.158;2023-11-19T09:39:27;12.60;99.90
13433;DHT22;6789;47.678;9.158;2023-11-19T09:44:19;12.60;99.90
13433;DHT22;6789;47.678;9.158;2023-11-19T09:49:11;12.70;99.90
13433;DHT22;6789;47.678;9.158;2023-11-19T09:54:04;12.70;99.90
13433;DHT22;6789;47.678;9.158;2023-11-19T09:58:56;12.70;99.90
13433;DHT22;6789;47.678;9.158;2023-11-19T10:03:50;12.70;99.90
13433;DHT22;6789;47.678;9.158;2023-11-19T10:08:44;12.80;99.90
13433;DHT22;6789;47.678;9.158;2023-11-19T10:13:36;12.90;99.90
13433;DHT22;6789;47.678;9.158;2023-11-19T10:18:29;13.20;99.90
13433;DHT22;6789;47.678;9.158;2023-11-19T10:23:21;13.40;99.90
13433;DHT22;6789;47.678;9.158;2023-11-19T10:28:15;13.60;99.90
13433;DHT22;6789;47.678;9.158;2023-11-19T10:33:08;13.90;99.90
13433;DHT22;6789;47.678;9.158;2023-11-19T10:38:13;14.30;99.90
13433;DHT22;6789;47.678;9.158;2023-11-19T10:43:09;14.60;99.90
13433;DHT22;6789;47.678;9.158;2023-11-19T10:48:03;14.70;99.90
13433;DHT22;6789;47.678;9.158;2023-11-19T10:52:59;14.70;99.90
13433;DHT22;6789;47.678;9.158;2023-11-19T10:57:51;14.60;99.90
13433;DHT22;6789;47.678;9.158;2023-11-19T11:02:45;14.60;99.90
13433;DHT22;6789;47.678;9.158;2023-11-19T11:07:44;14.30;99.90
13433;DHT22;6789;47.678;9.158;2023-11-19T11:12:37;14.40;99.90
13433;DHT22;6789;47.678;9.158;2023-11-19T11:17:31;14.30;99.90
13433;DHT22;6789;47.678;9.158;2023-11-19T11:22:27;14.50;99.90
13433;DHT22;6789;47.678;9.158;2023-11-19T11:28:03;14.70;99.90
13433;DHT22;6789;47.678;9.158;2023-11-19T11:38:27;15.30;99.90
13433;DHT22;6789;47.678;9.158;2023-11-19T11:43:59;15.50;99.90
13433;DHT22;6789;47.678;9.158;2023-11-19T11:48:52;15.10;99.90
13433;DHT22;6789;47.678;9.158;2023-11-19T11:53:47;15.20;99.90
13433;DHT22;6789;47.678;9.158;2023-11-19T11:58:40;15.00;99.90
13433;DHT22;6789;47.678;9.158;2023-11-19T12:03:37;14.80;99.90
13433;DHT22;6789;47.678;9.158;2023-11-19T12:08:29;14.60;99.90
13433;DHT22;6789;47.678;9.158;2023-11-19T12:13:21;14.60;99.90
13433;DHT22;6789;47.678;9.158;2023-11-19T12:18:19;14.70;99.90
13433;DHT22;6789;47.678;9.158;2023-11-19T12:23:11;14.70;99.90
13433;DHT22;6789;47.678;9.158;2023-11-19T12:28:03;14.70;99.90
13433;DHT22;6789;47.678;9.158;2023-11-19T12:32:56;14.70;99.90
13433;DHT22;6789;47.678;9.158;2023-11-19T12:37:49;14.60;99.90
13433;DHT22;6789;47.678;9.158;2023-11-19T12:42:42;14.40;99.90
13433;DHT22;6789;47.678;9.158;2023-11-19T12:47:38;14.20;99.90
13433;DHT22;6789;47.678;9.158;2023-11-19T12:52:33;14.30;99.90
13433;DHT22;6789;47.678;9.158;2023-11-19T12:57:42;14.10;99.90
13433;DHT22;6789;47.678;9.158;2023-11-19T13:07:45;14.00;99.90
13433;DHT22;6789;47.678;9.158;2023-11-19T13:12:37;14.00;99.90
13433;DHT22;6789;47.678;9.158;2023-11-19T13:17:29;14.30;99.90
13433;DHT22;6789;47.678;9.158;2023-11-19T13:22:21;14.70;99.90
13433;DHT22;6789;47.678;9.158;2023-11-19T13:27:13;15.00;99.90
13433;DHT22;6789;47.678;9.158;2023-11-19T13:32:05;14.90;99.90
13433;DHT22;6789;47.678;9.158;2023-11-19T13:36:57;14.80;99.90
13433;DHT22;6789;47.678;9.158;2023-11-19T13:41:49;14.80;99.90
13433;DHT22;6789;47.678;9.158;2023-11-19T13:46:41;14.70;99.90
13433;DHT22;6789;47.678;9.158;2023-11-19T13:51:36;14.70;99.90
13433;DHT22;6789;47.678;9.158;2023-11-19T13:56:28;14.50;99.90
13433;DHT22;6789;47.678;9.158;2023-11-19T14:01:20;14.40;99.90
13433;DHT22;6789;47.678;9.158;2023-11-19T14:06:15;14.40;99.90
13433;DHT22;6789;47.678;9.158;2023-11-19T14:11:07;14.60;99.90
13433;DHT22;6789;47.678;9.158;2023-11-19T14:15:59;14.50;99.90
13433;DHT22;6789;47.678;9.158;2023-11-19T14:20:51;14.40;99.90
13433;DHT22;6789;47.678;9.158;2023-11-19T14:25:43;14.40;99.90
13433;DHT22;6789;47.678;9.158;2023-11-19T14:30:35;14.40;99.90
13433;DHT22;6789;47.678;9.158;2023-11-19T14:35:27;14.30;99.90
13433;DHT22;6789;47.678;9.158;2023-11-19T14:40:18;14.30;99.90
13433;DHT22;6789;47.678;9.158;2023-11-19T14:45:10;14.30;99.90
13433;DHT22;6789;47.678;9.158;2023-11-19T14:50:04;14.10;99.90
13433;DHT22;6789;47.678;9.158;2023-11-19T14:54:57;14.00;99.90
13433;DHT22;6789;47.678;9.158;2023-11-19T14:59:49;13.80;99.90
13433;DHT22;6789;47.678;9.158;2023-11-19T15:04:41;13.70;99.90
13433;DHT22;6789;47.678;9.158;2023-11-19T15:09:35;13.60;99.90
13433;DHT22;6789;47.678;9.158;2023-11-19T15:14:28;13.40;99.90
13433;DHT22;6789;47.678;9.158;2023-11-19T15:19:20;13.20;99.90
13433;DHT22;6789;47.678;9.158;2023-11-19T15:24:12;13.20;99.90
13433;DHT22;6789;47.678;9.158;2023-11-19T15:29:05;13.10;99.90
13433;DHT22;6789;47.678;9.158;2023-11-19T15:33:57;13.00;99.90
13433;DHT22;6789;47.678;9.158;2023-11-19T15:38:49;12.90;99.90
13433;DHT22;6789;47.678;9.158;2023-11-19T15:43:44;12.90;99.90
13433;DHT22;6789;47.678;9.158;2023-11-19T15:48:37;12.80;99.90
13433;DHT22;6789;47.678;9.158;2023-11-19T15:53:29;12.80;99.90
13433;DHT22;6789;47.678;9.158;2023-11-19T15:58:24;12.70;99.90
13433;DHT22;6789;47.678;9.158;2023-11-19T16:03:16;12.70;99.90
13433;DHT22;6789;47.678;9.158;2023-11-19T16:08:08;12.70;99.90
13433;DHT22;6789;47.678;9.158;2023-11-19T16:13:02;12.80;99.90
13433;DHT22;6789;47.678;9.158;2023-11-19T16:17:53;12.80;99.90
13433;DHT22;6789;47.678;9.158;2023-11-19T16:22:46;12.70;99.90
13433;DHT22;6789;47.678;9.158;2023-11-19T16:27:37;12.60;99.90
13433;DHT22;6789;47.678;9.158;2023-11-19T16:32:31;12.50;99.90
13433;DHT22;6789;47.678;9.158;2023-11-19T16:37:23;12.40;99.90
13433;DHT22;6789;47.678;9.158;2023-11-19T16:42:14;12.30;99.90
13433;DHT22;6789;47.678;9.158;2023-11-19T16:47:06;12.20;99.90
13433;DHT22;6789;47.678;9.158;2023-11-19T16:51:59;12.20;99.90
13433;DHT22;6789;47.678;9.158;2023-11-19T16:56:52;12.20;99.90
13433;DHT22;6789;47.678;9.158;2023-11-19T17:01:44;12.10;99.90
13433;DHT22;6789;47.678;9.158;2023-11-19T17:06:38;12.10;99.90
13433;DHT22;6789;47.678;9.158;2023-11-19T17:11:30;12.10;99.90
13433;DHT22;6789;47.678;9.158;2023-11-19T17:16:23;12.10;99.90
13433;DHT22;6789;47.678;9.158;2023-11-19T17:21:15;12.00;99.90
13433;DHT22;6789;47.678;9.158;2023-11-19T17:26:06;12.10;99.90
13433;DHT22;6789;47.678;9.158;2023-11-19T17:30:59;12.00;99.90
13433;DHT22;6789;47.678;9.158;2023-11-19T17:35:51;12.10;99.90
13433;DHT22;6789;47.678;9.158;2023-11-19T17:40:43;12.10;99.90
13433;DHT22;6789;47.678;9.158;2023-11-19T17:45:35;12.10;99.90
13433;DHT22;6789;47.678;9.158;2023-11-19T17:50:27;12.10;99.90
13433;DHT22;6789;47.678;9.158;2023-11-19T17:55:19;12.20;99.90
13433;DHT22;6789;47.678;9.158;2023-11-19T18:00:12;12.20;99.90
13433;DHT22;6789;47.678;9.158;2023-11-19T18:05:06;12.10;99.90
13433;DHT22;6789;47.678;9.158;2023-11-19T18:09:58;12.10;99.90
13433;DHT22;6789;47.678;9.158;2023-11-19T18:14:51;12.00;99.90
13433;DHT22;6789;47.678;9.158;2023-11-19T18:19:45;12.00;99.90
13433;DHT22;6789;47.678;9.158;2023-11-19T18:24:37;12.00;99.90
13433;DHT22;6789;47.678;9.158;2023-11-19T18:29:29;12.00;99.90
13433;DHT22;6789;47.678;9.158;2023-11-19T18:34:20;12.00;99.90
13433;DHT22;6789;47.678;9.158;2023-11-19T18:39:13;12.10;99.90
13433;DHT22;6789;47.678;9.158;2023-11-19T18:44:05;12.10;99.90
13433;DHT22;6789;47.678;9.158;2023-11-19T18:49:00;12.10;99.90
13433;DHT22;6789;47.678;9.158;2023-11-19T18:53:53;12.20;99.90
13433;DHT22;6789;47.678;9.158;2023-11-19T18:58:46;12.20;99.90
13433;DHT22;6789;47.678;9.158;2023-11-19T19:03:39;12.30;99.90
13433;DHT22;6789;47.678;9.158;2023-11-19T19:08:32;12.50;99.90
13433;DHT22;6789;47.678;9.158;2023-11-19T19:13:24;12.60;99.90
13433;DHT22;6789;47.678;9.158;2023-11-19T19:18:16;12.70;99.90
13433;DHT22;6789;47.678;9.158;2023-11-19T19:23:09;12.70;99.90
13433;DHT22;6789;47.678;9.158;2023-11-19T19:28:01;12.70;99.90
13433;DHT22;6789;47.678;9.158;2023-11-19T19:32:56;12.70;99.90
13433;DHT22;6789;47.678;9.158;2023-11-19T19:37:48;12.70;99.90
13433;DHT22;6789;47.678;9.158;2023-11-19T19:42:40;12.70;99.90
13433;DHT22;6789;47.678;9.158;2023-11-19T19:47:32;12.80;99.90
13433;DHT22;6789;47.678;9.158;2023-11-19T19:52:24;12.80;99.90
13433;DHT22;6789;47.678;9.158;2023-11-19T19:57:19;12.80;99.90
13433;DHT22;6789;47.678;9.158;2023-11-19T20:02:12;12.90;99.90
13433;DHT22;6789;47.678;9.158;2023-11-19T20:07:03;12.90;99.90
13433;DHT22;6789;47.678;9.158;2023-11-19T20:11:55;12.90;99.90
13433;DHT22;6789;47.678;9.158;2023-11-19T20:16:49;13.00;99.90
13433;DHT22;6789;47.678;9.158;2023-11-19T20:22:01;12.90;99.90
13433;DHT22;6789;47.678;9.158;2023-11-19T20:26:53;12.80;99.90
13433;DHT22;6789;47.678;9.158;2023-11-19T20:31:45;12.80;99.90
13433;DHT22;6789;47.678;9.158;2023-11-19T20:36:37;12.80;99.90
13433;DHT22;6789;47.678;9.158;2023-11-19T20:41:29;12.70;99.90
13433;DHT22;6789;47.678;9.158;2023-11-19T20:46:21;12.70;99.90
13433;DHT22;6789;47.678;9.158;2023-11-19T20:51:18;12.70;99.90
13433;DHT22;6789;47.678;9.158;2023-11-19T20:56:15;12.70;99.90
13433;DHT22;6789;47.678;9.158;2023-11-19T21:01:07;12.60;99.90
13433;DHT22;6789;47.678;9.158;2023-11-19T21:05:59;12.50;99.90
13433;DHT22;6789;47.678;9.158;2023-11-19T21:10:50;12.50;99.90
13433;DHT22;6789;47.678;9.158;2023-11-19T21:15:43;12.40;99.90
13433;DHT22;6789;47.678;9.158;2023-11-19T21:20:49;12.40;99.90
13433;DHT22;6789;47.678;9.158;2023-11-19T21:25:40;12.30;99.90
13433;DHT22;6789;47.678;9.158;2023-11-19T21:30:32;12.30;99.90
13433;DHT22;6789;47.678;9.158;2023-11-19T21:35:25;12.20;99.90
13433;DHT22;6789;47.678;9.158;2023-11-19T21:40:16;12.20;99.90
13433;DHT22;6789;47.678;9.158;2023-11-19T21:45:08;12.30;99.90
13433;DHT22;6789;47.678;9.158;2023-11-19T21:50:01;12.20;99.90
13433;DHT22;6789;47.678;9.158;2023-11-19T21:54:52;12.20;99.90
13433;DHT22;6789;47.678;9.158;2023-11-19T21:59:44;12.30;99.90
13433;DHT22;6789;47.678;9.158;2023-11-19T22:04:36;12.30;99.90
13433;DHT22;6789;47.678;9.158;2023-11-19T22:09:28;12.20;99.90
13433;DHT22;6789;47.678;9.158;2023-11-19T22:14:20;12.20;99.90
13433;DHT22;6789;47.678;9.158;2023-11-19T22:19:13;12.10;99.90
13433;DHT22;6789;47.678;9.158;2023-11-19T22:24:05;12.00;99.90
13433;DHT22;6789;47.678;9.158;2023-11-19T22:28:57;12.10;99.90
13433;DHT22;6789;47.678;9.158;2023-11-19T22:33:51;11.80;99.90
13433;DHT22;6789;47.678;9.158;2023-11-19T22:38:42;11.70;99.90
13433;DHT22;6789;47.678;9.158;2023-11-19T22:43:34;11.50;99.90
13433;DHT22;6789;47.678;9.158;2023-11-19T22:48:26;11.40;99.90
13433;DHT22;6789;47.678;9.158;2023-11-19T22:53:18;11.20;99.90
13433;DHT22;6789;47.678;9.158;2023-11-19T22:58:10;11.20;99.90
13433;DHT22;6789;47.678;9.158;2023-11-19T23:03:01;11.30;99.90
13433;DHT22;6789;47.678;9.158;2023-11-19T23:08:08;11.30;99.90
13433;DHT22;6789;47.678;9.158;2023-11-19T23:13:16;11.30;99.90
13433;DHT22;6789;47.678;9.158;2023-11-19T23:18:10;11.30;99.90
13433;DHT22;6789;47.678;9.158;2023-11-19T23:23:01;11.30;99.90
13433;DHT22;6789;47.678;9.158;2023-11-19T23:27:53;11.20;99.90
13433;DHT22;6789;47.678;9.158;2023-11-19T23:32:45;11.20;99.90
13433;DHT22;6789;47.678;9.158;2023-11-19T23:37:37;11.30;99.90
13433;DHT22;6789;47.678;9.158;2023-11-19T23:42:29;11.30;99.90
13433;DHT22;6789;47.678;9.158;2023-11-19T23:47:21;11.40;99.90
13433;DHT22;6789;47.678;9.158;2023-11-19T23:52:13;11.70;99.90
13433;DHT22;6789;47.678;9.158;2023-11-19T23:57:05;11.80;99.90
